createdAt,value
2022-11-07T00:03:05.394Z,636.00
2022-11-07T00:08:05.610Z,606.00
2022-11-07T00:13:05.909Z,625.00
2022-11-07T00:18:04.117Z,609.00
2022-11-07T00:23:03.503Z,585.00
2022-11-07T00:28:02.505Z,628.00
2022-11-07T00:33:01.695Z,597.00
2022-11-07T00:38:00.918Z,661.00
2022-11-07T00:43:00.156Z,644.00
2022-11-07T00:47:58.469Z,610.00
2022-11-07T00:53:00.664Z,661.00
2022-11-07T00:57:56.911Z,627.00
2022-11-07T01:02:56.230Z,624.00
2022-11-07T01:07:56.309Z,619.00
2022-11-07T01:12:54.606Z,649.00
2022-11-07T01:17:54.893Z,630.00
2022-11-07T01:22:54.087Z,631.00
2022-11-07T01:27:53.315Z,581.00
2022-11-07T01:32:53.501Z,652.00
2022-11-07T01:37:53.689Z,644.00
2022-11-07T01:42:50.888Z,644.00
2022-11-07T01:47:50.054Z,626.00
2022-11-07T01:52:50.244Z,631.00
2022-11-07T01:57:49.542Z,611.00
2022-11-07T02:02:47.989Z,623.00
2022-11-07T02:07:47.197Z,621.00
2022-11-07T02:12:47.353Z,617.00
2022-11-07T02:17:45.520Z,634.00
2022-11-07T02:22:44.832Z,626.00
2022-11-07T02:27:44.163Z,626.00
2022-11-07T02:32:43.285Z,637.00
2022-11-07T02:37:43.587Z,622.00
2022-11-07T02:42:41.907Z,590.00
2022-11-07T02:47:42.226Z,613.00
2022-11-07T02:52:40.605Z,577.00
2022-11-07T02:57:40.745Z,596.00
2022-11-07T03:02:39.004Z,626.00
2022-11-07T03:07:38.055Z,588.00
2022-11-07T03:12:37.453Z,591.00
2022-11-07T03:17:36.653Z,589.00
2022-11-07T03:22:36.804Z,619.00
2022-11-07T03:27:34.907Z,615.00
2022-11-07T03:32:34.203Z,623.00
2022-11-07T03:37:34.498Z,606.00
2022-11-07T03:42:32.793Z,594.00
2022-11-07T03:47:33.103Z,611.00
2022-11-07T03:52:32.433Z,616.00
2022-11-07T03:57:30.772Z,612.00
2022-11-07T04:02:29.978Z,599.00
2022-11-07T04:07:30.195Z,596.00
2022-11-07T04:12:28.521Z,579.00
2022-11-07T04:17:27.818Z,573.00
2022-11-07T04:22:28.972Z,582.00
2022-11-07T04:27:26.170Z,575.00
2022-11-07T04:32:26.282Z,585.00
2022-11-07T04:37:25.589Z,610.00
2022-11-07T04:42:25.931Z,581.00
2022-11-07T04:47:23.233Z,586.00
2022-11-07T04:52:22.547Z,618.00
2022-11-07T04:57:23.891Z,600.00
2022-11-07T05:02:21.264Z,591.00
2022-11-07T05:07:20.420Z,598.00
2022-11-07T05:12:19.769Z,610.00
2022-11-07T05:17:20.843Z,672.00
2022-11-07T05:22:19.084Z,599.00
2022-11-07T05:27:17.409Z,599.00
2022-11-07T05:32:16.528Z,615.00
2022-11-07T05:37:17.851Z,600.00
2022-11-07T05:42:16.126Z,617.00
2022-11-07T05:47:16.405Z,587.00
2022-11-07T05:52:13.688Z,605.00
2022-11-07T05:57:15.001Z,605.00
2022-11-07T06:02:13.445Z,617.00
2022-11-07T06:07:12.519Z,621.00
2022-11-07T06:12:11.665Z,631.00
2022-11-07T06:17:10.799Z,642.00
2022-11-07T06:22:08.964Z,635.00
2022-11-07T06:27:09.125Z,630.00
2022-11-07T06:32:07.316Z,637.00
2022-11-07T06:37:08.442Z,642.00
2022-11-07T06:42:05.555Z,641.00
2022-11-07T06:47:04.874Z,635.00
2022-11-07T06:52:04.167Z,617.00
2022-11-07T06:57:04.477Z,612.00
2022-11-07T07:02:03.861Z,631.00
2022-11-07T07:07:00.953Z,633.00
2022-11-07T07:12:01.335Z,630.00
2022-11-07T07:17:00.458Z,628.00
2022-11-07T07:22:00.773Z,628.00
2022-11-07T07:27:00.106Z,621.00
2022-11-07T07:31:59.228Z,622.00
2022-11-07T07:36:57.553Z,632.00
2022-11-07T07:41:57.873Z,621.00
2022-11-07T07:46:56.191Z,613.00
2022-11-07T07:51:55.519Z,607.00
2022-11-07T07:56:54.896Z,605.00
2022-11-07T08:01:57.053Z,613.00
2022-11-07T08:06:54.284Z,644.00
2022-11-07T08:11:53.666Z,635.00
2022-11-07T08:16:51.847Z,608.00
2022-11-07T08:21:51.938Z,643.00
2022-11-07T08:26:54.277Z,622.00
2022-11-07T08:31:50.649Z,616.00
2022-11-07T08:36:49.750Z,637.00
2022-11-07T08:41:48.115Z,616.00
2022-11-07T08:46:48.251Z,613.00
2022-11-07T08:51:47.403Z,608.00
2022-11-07T08:56:45.522Z,593.00
2022-11-07T09:02:15.187Z,602.00
2022-11-07T09:06:45.037Z,598.00
2022-11-07T09:11:43.392Z,591.00
2022-11-07T09:16:43.719Z,608.00
2022-11-07T09:21:43.037Z,640.00
2022-11-07T09:26:41.336Z,619.00
2022-11-07T09:31:42.715Z,637.00
2022-11-07T09:36:40.802Z,618.00
2022-11-07T09:41:39.098Z,613.00
2022-11-07T09:46:39.406Z,603.00
2022-11-07T09:51:37.712Z,617.00
2022-11-07T09:56:38.021Z,622.00
2022-11-07T10:01:36.527Z,599.00
2022-11-07T10:06:36.509Z,597.00
2022-11-07T10:11:35.952Z,605.00
2022-11-07T10:16:35.071Z,597.00
2022-11-07T10:21:38.714Z,597.00
2022-11-07T10:26:32.592Z,590.00
2022-11-07T10:31:32.697Z,593.00
2022-11-07T10:36:30.836Z,595.00
2022-11-07T10:41:30.424Z,599.00
2022-11-07T10:46:29.336Z,598.00
2022-11-07T10:51:28.676Z,588.00
2022-11-07T10:56:27.877Z,591.00
2022-11-07T11:01:28.177Z,595.00
2022-11-07T11:06:26.443Z,587.00
2022-11-07T11:11:26.762Z,573.00
2022-11-07T11:16:24.869Z,570.00
2022-11-07T11:21:24.283Z,568.00
2022-11-07T11:26:23.592Z,567.00
2022-11-07T11:31:22.783Z,583.00
2022-11-07T11:36:22.904Z,574.00
2022-11-07T11:41:21.246Z,555.00
2022-11-07T11:46:20.469Z,563.00
2022-11-07T11:51:19.559Z,560.00
2022-11-07T11:56:18.953Z,562.00
2022-11-07T12:01:18.235Z,558.00
2022-11-07T12:06:17.536Z,561.00
2022-11-07T12:11:16.651Z,568.00
2022-11-07T12:16:16.771Z,567.00
2022-11-07T12:21:16.063Z,559.00
2022-11-07T12:26:14.383Z,560.00
2022-11-07T12:31:13.685Z,562.00
2022-11-07T12:36:13.044Z,560.00
2022-11-07T12:41:12.191Z,548.00
2022-11-07T12:46:11.386Z,556.00
2022-11-07T12:51:10.522Z,557.00
2022-11-07T12:56:10.009Z,567.00
2022-11-07T13:01:09.379Z,554.00
2022-11-07T13:06:08.555Z,558.00
2022-11-07T13:11:07.519Z,556.00
2022-11-07T13:16:15.472Z,553.00
2022-11-07T13:21:06.313Z,555.00
2022-11-07T13:26:20.318Z,550.00
2022-11-07T13:31:07.749Z,551.00
2022-11-07T13:36:03.763Z,552.00
2022-11-07T13:41:04.040Z,557.00
2022-11-07T13:46:03.249Z,553.00
2022-11-07T13:51:02.539Z,551.00
2022-11-07T13:56:01.684Z,551.00
2022-11-07T14:01:01.197Z,550.00
2022-11-07T14:05:59.057Z,551.00
2022-11-07T14:10:59.511Z,556.00
2022-11-07T14:15:59.551Z,546.00
2022-11-07T14:20:55.772Z,540.00
2022-11-07T14:25:57.996Z,543.00
2022-11-07T14:30:55.143Z,544.00
2022-11-07T14:35:54.443Z,546.00
2022-11-07T14:40:54.559Z,554.00
2022-11-07T14:50:52.326Z,554.00
2022-11-07T14:55:56.560Z,557.00
2022-11-07T15:00:50.729Z,553.00
2022-11-07T15:05:52.128Z,548.00
2022-11-07T15:10:49.091Z,550.00
2022-11-07T15:15:47.370Z,555.00
2022-11-07T15:20:47.631Z,555.00
2022-11-07T15:25:45.857Z,553.00
2022-11-07T15:30:46.054Z,548.00
2022-11-07T15:35:45.367Z,551.00
2022-11-07T15:40:43.687Z,556.00
2022-11-07T15:45:44.666Z,555.00
2022-11-07T15:50:44.240Z,559.00
2022-11-07T15:55:42.219Z,556.00
2022-11-07T16:00:42.492Z,564.00
2022-11-07T16:05:42.401Z,560.00
2022-11-07T16:10:40.737Z,570.00
2022-11-07T16:15:39.894Z,566.00
2022-11-07T16:20:38.022Z,565.00
2022-11-07T16:25:37.346Z,568.00
2022-11-07T16:30:37.863Z,578.00
2022-11-07T16:35:36.155Z,572.00
2022-11-07T16:40:36.395Z,569.00
2022-11-07T16:45:34.345Z,572.00
2022-11-07T16:50:33.680Z,572.00
2022-11-07T16:55:33.009Z,568.00
2022-11-07T17:00:33.387Z,573.00
2022-11-07T17:05:31.396Z,580.00
2022-11-07T17:10:29.542Z,582.00
2022-11-07T17:15:33.844Z,592.00
2022-11-07T17:21:01.085Z,603.00
2022-11-07T17:25:29.245Z,599.00
2022-11-07T17:30:29.385Z,610.00
2022-11-07T17:35:32.608Z,590.00
2022-11-07T17:40:29.901Z,589.00
2022-11-07T17:45:25.389Z,583.00
2022-11-07T17:50:24.708Z,595.00
2022-11-07T17:55:24.114Z,604.00
2022-11-07T18:00:25.161Z,612.00
2022-11-07T18:05:23.063Z,579.00
2022-11-07T18:10:21.643Z,611.00
2022-11-07T18:15:20.412Z,596.00
2022-11-07T18:20:20.093Z,592.00
2022-11-07T18:25:20.186Z,596.00
2022-11-07T18:30:18.422Z,598.00
2022-11-07T18:35:17.682Z,589.00
2022-11-07T18:40:18.662Z,604.00
2022-11-07T18:45:16.306Z,592.00
2022-11-07T18:50:15.481Z,579.00
2022-11-07T18:55:16.568Z,621.00
2022-11-07T19:00:14.520Z,599.00
2022-11-07T19:05:13.196Z,610.00
2022-11-07T19:10:12.292Z,616.00
2022-11-07T19:15:11.172Z,606.00
2022-11-07T19:20:11.696Z,654.00
2022-11-07T19:25:10.884Z,609.00
2022-11-07T19:30:09.351Z,644.00
2022-11-07T19:35:08.301Z,657.00
2022-11-07T19:40:07.821Z,682.00
2022-11-07T19:45:05.588Z,644.00
2022-11-07T19:50:06.745Z,622.00
2022-11-07T19:55:05.498Z,675.00
2022-11-07T20:00:04.650Z,646.00
2022-11-07T20:05:07.825Z,644.00
2022-11-07T20:10:04.104Z,674.00
2022-11-07T20:15:03.068Z,682.00
2022-11-07T20:20:06.137Z,647.00
2022-11-07T20:25:00.946Z,628.00
2022-11-07T20:30:00.267Z,632.00
2022-11-07T20:35:00.429Z,626.00
2022-11-07T20:39:57.610Z,640.00
2022-11-07T20:44:58.520Z,643.00
2022-11-07T20:49:57.233Z,607.00
2022-11-07T20:54:57.258Z,662.00
2022-11-07T20:59:55.371Z,726.00
2022-11-07T21:05:16.633Z,735.00
2022-11-07T21:09:54.985Z,632.00
2022-11-07T21:14:54.021Z,658.00
2022-11-07T21:19:53.412Z,623.00
2022-11-07T21:24:51.789Z,593.00
2022-11-07T21:29:51.579Z,632.00
2022-11-07T21:34:49.924Z,639.00
2022-11-07T21:39:49.051Z,632.00
2022-11-07T21:44:49.561Z,630.00
2022-11-07T21:49:46.787Z,678.00
2022-11-07T21:54:50.045Z,717.00
2022-11-07T21:59:46.243Z,733.00
2022-11-07T22:04:44.505Z,740.00
2022-11-07T22:09:45.646Z,715.00
2022-11-07T22:14:43.818Z,742.00
2022-11-07T22:19:42.999Z,749.00
2022-11-07T22:24:42.386Z,746.00
2022-11-07T22:29:40.600Z,753.00
2022-11-07T22:34:40.719Z,739.00
2022-11-07T22:39:39.939Z,688.00
2022-11-07T22:44:38.209Z,673.00
2022-11-07T22:49:39.441Z,678.00
2022-11-07T22:54:36.714Z,698.00
2022-11-07T22:59:36.965Z,741.00
2022-11-07T23:04:37.173Z,688.00
2022-11-07T23:09:35.438Z,731.00
2022-11-07T23:14:34.693Z,729.00
2022-11-07T23:19:34.879Z,702.00
2022-11-07T23:24:33.138Z,691.00
2022-11-07T23:29:31.413Z,719.00
2022-11-07T23:34:30.628Z,720.00
2022-11-07T23:39:30.906Z,718.00
2022-11-07T23:44:30.151Z,717.00
2022-11-07T23:49:28.395Z,710.00
2022-11-07T23:54:28.669Z,733.00
2022-11-07T23:59:26.991Z,669.00
